Time;durP1;ratioP1;P1;durP2;ratioP2;P2;SDS_P1;SDS_P2;PMS_P1;PMS_P2;Temp;Humidity;BMP_temperature;BMP_pressure;BME280_temperature;BME280_humidity;BME280_pressure;Samples;Min_cycle;Max_cycle;Signal;HPM_P1;HPM_P2
2022/10/16 00:00:57;;;;;;;2.45;1.13;;;22.20;57.10;;;;;;4170341;28;20045;-53
2022/10/16 00:03:19;;;;;;;3.08;1.20;;;22.20;57.20;;;;;;4165151;28;20064;-52
2022/10/16 00:05:43;;;;;;;2.92;1.00;;;22.30;57.10;;;;;;4162353;28;20132;-48
2022/10/16 00:08:06;;;;;;;4.07;1.25;;;22.20;57.00;;;;;;4162994;28;20349;-49
2022/10/16 00:10:29;;;;;;;2.63;1.47;;;22.30;57.20;;;;;;4164650;28;20041;-50
2022/10/16 00:12:52;;;;;;;5.87;1.67;;;22.30;57.30;;;;;;4166639;28;20275;-56
2022/10/16 00:15:15;;;;;;;10.95;1.38;;;22.30;57.50;;;;;;4165875;28;21072;-51
2022/10/16 00:17:38;;;;;;;4.50;1.70;;;22.30;57.80;;;;;;4164974;28;20523;-51
2022/10/16 00:20:00;;;;;;;6.53;1.52;;;22.30;58.30;;;;;;4172316;28;21031;-51
2022/10/16 00:22:23;;;;;;;6.20;1.65;;;22.40;58.50;;;;;;4167740;28;20033;-50
2022/10/16 00:24:45;;;;;;;3.65;1.77;;;22.40;58.70;;;;;;4171243;28;20076;-51
2022/10/16 00:27:08;;;;;;;3.78;1.33;;;22.40;58.60;;;;;;4165488;28;20038;-52
2022/10/16 00:29:30;;;;;;;3.40;1.98;;;22.50;58.40;;;;;;4176584;28;20047;-50
2022/10/16 00:31:53;;;;;;;7.78;1.90;;;22.50;58.20;;;;;;4168999;28;20043;-51
2022/10/16 00:34:15;;;;;;;4.22;1.50;;;22.50;58.20;;;;;;4176502;28;20036;-51
2022/10/16 00:36:38;;;;;;;2.88;1.40;;;22.50;58.10;;;;;;4173629;28;20037;-52
2022/10/16 00:39:01;;;;;;;3.45;1.25;;;22.50;58.00;;;;;;4164466;28;20041;-53
2022/10/16 00:41:25;;;;;;;7.10;1.90;;;22.50;57.90;;;;;;4160987;28;20485;-53
2022/10/16 00:43:52;;;;;;;4.22;1.60;;;22.50;58.10;;;;;;4166849;28;20454;-53
2022/10/16 00:46:35;;;;;;;3.58;1.35;;;22.50;57.50;;;;;;4167197;28;20048;-50
2022/10/16 00:49:03;;;;;;;4.93;1.48;;;22.50;57.50;;;;;;4162960;28;20388;-52
2022/10/16 00:51:33;;;;;;;3.33;1.45;;;22.50;57.60;;;;;;4170816;28;21580;-50
2022/10/16 00:53:56;;;;;;;4.47;1.60;;;22.50;57.50;;;;;;4168395;28;20075;-53
2022/10/16 00:56:19;;;;;;;4.68;1.75;;;22.50;57.40;;;;;;4176448;28;20036;-49
2022/10/16 00:58:42;;;;;;;4.57;1.67;;;22.50;57.50;;;;;;4173500;28;20046;-47
2022/10/16 01:01:05;;;;;;;3.08;1.33;;;22.50;57.40;;;;;;4169182;28;20046;-52
2022/10/16 01:03:34;;;;;;;3.35;1.20;;;22.50;57.30;;;;;;4174889;28;20066;-50
2022/10/16 01:06:07;;;;;;;3.95;1.38;;;22.50;57.30;;;;;;4179341;28;20055;-51
2022/10/16 01:08:51;;;;;;;2.07;1.13;;;22.50;57.30;;;;;;4175216;28;20051;-47
2022/10/16 01:11:25;;;;;;;3.63;1.70;;;22.50;57.30;;;;;;4167256;28;20554;-51
2022/10/16 01:13:53;;;;;;;2.97;1.33;;;22.50;57.20;;;;;;4171559;28;20100;-49
2022/10/16 01:16:35;;;;;;;3.83;1.50;;;22.50;57.20;;;;;;4176225;28;20041;-50
2022/10/16 01:19:14;;;;;;;3.83;1.38;;;22.50;57.20;;;;;;4176376;28;20393;-52
2022/10/16 01:21:44;;;;;;;2.78;1.20;;;22.60;57.00;;;;;;4182863;28;20032;-52
2022/10/16 01:24:12;;;;;;;2.22;1.30;;;22.60;57.00;;;;;;4170451;28;20044;-48
2022/10/16 01:27:06;;;;;;;3.67;1.42;;;22.60;56.90;;;;;;4169376;28;20048;-53
2022/10/16 01:29:59;;;;;;;2.30;1.20;;;22.60;56.90;;;;;;4162397;28;20123;-56
2022/10/16 01:32:42;;;;;;;2.90;1.27;;;22.60;56.80;;;;;;4168808;28;20474;-48
2022/10/16 01:35:09;;;;;;;2.75;1.35;;;22.60;56.80;;;;;;4164750;28;20497;-49
2022/10/16 01:37:43;;;;;;;2.70;1.50;;;22.60;56.70;;;;;;4162024;28;20037;-54
2022/10/16 01:40:12;;;;;;;2.67;1.40;;;22.70;56.80;;;;;;4166590;28;20522;-50
2022/10/16 01:42:42;;;;;;;3.95;1.55;;;22.70;56.70;;;;;;4161881;28;20037;-54
2022/10/16 01:45:07;;;;;;;2.13;1.42;;;22.70;56.60;;;;;;4161528;28;20059;-52
2022/10/16 01:47:32;;;;;;;4.72;1.65;;;22.70;56.50;;;;;;4162114;28;20113;-54
2022/10/16 01:49:56;;;;;;;2.80;1.17;;;22.70;56.40;;;;;;4160190;28;20060;-51
2022/10/16 01:52:23;;;;;;;3.40;1.23;;;22.70;56.40;;;;;;4160697;28;20044;-55
2022/10/16 01:54:50;;;;;;;3.55;1.15;;;22.70;56.50;;;;;;4158013;28;20124;-54
2022/10/16 01:57:14;;;;;;;2.78;1.35;;;22.70;56.50;;;;;;4162621;28;20072;-53
2022/10/16 01:59:43;;;;;;;3.10;1.65;;;22.80;56.50;;;;;;4169566;28;20059;-54
2022/10/16 02:02:11;;;;;;;3.10;1.30;;;22.80;56.50;;;;;;4172010;28;20028;-55
2022/10/16 02:04:46;;;;;;;2.60;1.30;;;22.80;56.50;;;;;;4170310;28;20429;-54
2022/10/16 02:07:08;;;;;;;2.53;1.30;;;22.80;56.60;;;;;;4169372;28;20041;-54
2022/10/16 02:09:34;;;;;;;2.58;1.45;;;22.80;56.50;;;;;;4175157;28;20040;-54
2022/10/16 02:12:02;;;;;;;2.75;1.33;;;22.80;56.40;;;;;;4162125;28;20075;-54
2022/10/16 02:14:25;;;;;;;3.97;1.58;;;22.80;56.40;;;;;;4177935;28;20040;-54
2022/10/16 02:16:48;;;;;;;3.60;1.50;;;22.80;57.00;;;;;;4168721;28;20120;-52
2022/10/16 02:19:11;;;;;;;2.45;1.30;;;22.80;56.40;;;;;;4164176;28;20145;-52
2022/10/16 02:21:54;;;;;;;2.83;1.02;;;22.80;56.30;;;;;;4164573;28;20072;-54
2022/10/16 02:24:33;;;;;;;2.47;1.23;;;22.90;56.40;;;;;;4175371;28;20433;-56
2022/10/16 02:27:20;;;;;;;3.78;1.30;;;22.90;56.50;;;;;;4163376;28;20452;-55
2022/10/16 02:29:50;;;;;;;4.00;1.27;;;22.90;56.50;;;;;;4167241;28;20499;-52
2022/10/16 02:32:16;;;;;;;2.65;1.67;;;22.90;56.40;;;;;;4170030;28;20033;-54
2022/10/16 02:34:39;;;;;;;3.05;1.30;;;22.90;56.40;;;;;;4172162;28;20483;-54
2022/10/16 02:37:03;;;;;;;3.42;1.30;;;22.90;56.40;;;;;;4180583;28;20116;-55
2022/10/16 02:39:28;;;;;;;2.58;1.30;;;22.90;56.30;;;;;;4170971;28;20052;-54
2022/10/16 02:41:50;;;;;;;3.03;1.20;;;23.00;56.30;;;;;;4171669;28;20114;-53
2022/10/16 02:44:13;;;;;;;2.80;1.30;;;23.00;56.30;;;;;;4179659;28;20040;-51
2022/10/16 02:46:35;;;;;;;2.63;1.13;;;23.00;56.20;;;;;;4179541;28;20154;-54
2022/10/16 02:48:58;;;;;;;2.97;1.20;;;23.00;56.80;;;;;;4174713;28;20039;-52
2022/10/16 02:51:20;;;;;;;3.42;1.50;;;23.00;56.30;;;;;;4173618;28;20051;-53
2022/10/16 02:53:43;;;;;;;1.83;1.00;;;23.00;56.20;;;;;;4171094;28;20032;-55
2022/10/16 02:56:06;;;;;;;2.45;1.20;;;23.10;56.20;;;;;;4177622;28;20048;-50
2022/10/16 02:58:28;;;;;;;1.88;1.23;;;23.10;56.10;;;;;;4176476;28;20090;-56
2022/10/16 03:00:51;;;;;;;2.35;1.00;;;23.10;56.10;;;;;;4173717;28;20059;-52
2022/10/16 03:03:13;;;;;;;3.53;1.13;;;23.10;56.10;;;;;;4176904;28;20044;-55
2022/10/16 03:05:36;;;;;;;3.35;1.05;;;23.10;56.10;;;;;;4180870;28;20041;-53
2022/10/16 03:08:00;;;;;;;2.80;1.30;;;23.10;56.10;;;;;;4180035;28;20028;-51
2022/10/16 03:11:04;;;;;;;2.63;1.35;;;23.10;56.00;;;;;;4181620;28;20045;-55
2022/10/16 03:13:27;;;;;;;2.55;1.50;;;23.20;56.00;;;;;;4167900;28;20043;-50
2022/10/16 03:15:49;;;;;;;1.90;1.10;;;23.20;56.00;;;;;;4165874;28;20033;-50
2022/10/16 03:18:12;;;;;;;3.20;1.08;;;23.20;56.00;;;;;;4168306;28;20036;-51
2022/10/16 03:20:35;;;;;;;3.63;1.08;;;23.20;56.00;;;;;;4171315;28;20400;-53
2022/10/16 03:22:57;;;;;;;4.30;1.00;;;23.20;56.00;;;;;;4164188;28;20476;-53
2022/10/16 03:25:21;;;;;;;2.47;1.25;;;23.20;55.90;;;;;;4169019;28;20048;-54
2022/10/16 03:27:44;;;;;;;1.25;0.68;;;23.20;55.80;;;;;;4174129;28;20433;-55
2022/10/16 03:30:07;;;;;;;1.75;1.00;;;23.30;55.90;;;;;;4173800;28;20536;-52
2022/10/16 03:32:32;;;;;;;1.67;0.90;;;23.30;55.90;;;;;;4173976;28;20480;-54
2022/10/16 03:34:56;;;;;;;2.33;0.90;;;23.30;55.80;;;;;;4173990;28;20045;-53
2022/10/16 03:37:18;;;;;;;2.55;1.02;;;23.30;56.10;;;;;;4166760;28;20029;-54
2022/10/16 03:39:41;;;;;;;2.83;1.15;;;23.30;55.80;;;;;;4160133;28;20048;-53
2022/10/16 03:42:04;;;;;;;2.05;0.88;;;23.40;55.80;;;;;;4174122;28;20032;-54
2022/10/16 03:44:26;;;;;;;2.63;1.27;;;23.40;55.80;;;;;;4174001;28;20048;-53
2022/10/16 03:46:49;;;;;;;1.60;0.90;;;23.40;55.70;;;;;;4166241;28;20037;-52
2022/10/16 03:49:11;;;;;;;1.60;0.90;;;23.40;55.60;;;;;;4179434;28;20040;-54
2022/10/16 03:51:34;;;;;;;4.13;1.23;;;23.50;55.60;;;;;;4160411;28;20051;-54
2022/10/16 03:53:56;;;;;;;2.47;1.00;;;23.60;55.50;;;;;;4169434;28;20130;-56
2022/10/16 03:56:19;;;;;;;4.15;1.38;;;23.60;55.50;;;;;;4154152;28;20045;-55
2022/10/16 03:58:42;;;;;;;2.50;1.05;;;23.60;55.40;;;;;;4169312;28;20428;-51
2022/10/16 04:01:04;;;;;;;2.90;0.90;;;23.60;55.40;;;;;;4160829;28;20523;-55
2022/10/16 04:03:27;;;;;;;2.67;1.20;;;23.70;55.40;;;;;;4175937;28;20052;-51
2022/10/16 04:05:50;;;;;;;3.13;1.20;;;23.70;55.30;;;;;;4170741;28;20053;-49
2022/10/16 04:08:12;;;;;;;3.30;1.33;;;23.80;55.30;;;;;;4172846;28;20123;-54
2022/10/16 04:10:35;;;;;;;2.05;1.15;;;23.80;55.20;;;;;;4173390;28;20131;-52
2022/10/16 04:12:57;;;;;;;1.77;0.73;;;23.90;55.20;;;;;;4174702;28;20553;-54
2022/10/16 04:15:20;;;;;;;2.25;1.05;;;23.90;55.10;;;;;;4165165;28;20116;-55
2022/10/16 04:17:43;;;;;;;3.80;1.23;;;24.00;55.10;;;;;;4170369;28;20037;-53
2022/10/16 04:20:06;;;;;;;3.13;1.15;;;24.00;55.10;;;;;;4161610;28;20122;-54
2022/10/16 04:22:28;;;;;;;1.80;1.05;;;24.00;55.00;;;;;;4170453;28;20037;-54
2022/10/16 04:24:51;;;;;;;2.70;1.20;;;24.10;55.00;;;;;;4170828;28;20050;-49
2022/10/16 04:27:13;;;;;;;4.65;1.48;;;24.20;54.90;;;;;;4170026;28;20484;-51
2022/10/16 04:29:36;;;;;;;2.70;1.05;;;24.20;54.70;;;;;;4170025;28;20075;-52
2022/10/16 04:31:58;;;;;;;4.05;1.45;;;24.30;54.60;;;;;;4170399;28;20095;-50
2022/10/16 04:34:21;;;;;;;2.45;1.30;;;24.40;54.40;;;;;;4175705;28;20459;-52
2022/10/16 04:36:44;;;;;;;1.95;1.13;;;24.40;54.30;;;;;;4172280;28;20906;-51
2022/10/16 04:39:06;;;;;;;1.75;1.15;;;24.60;54.30;;;;;;4176920;28;20039;-50
2022/10/16 04:41:29;;;;;;;2.17;1.20;;;24.60;54.10;;;;;;4176700;28;20098;-53
2022/10/16 04:43:51;;;;;;;2.90;1.80;;;24.60;54.10;;;;;;4164533;28;20037;-53
2022/10/16 04:46:14;;;;;;;3.67;1.70;;;24.70;54.10;;;;;;4163625;28;20053;-54
2022/10/16 04:48:36;;;;;;;2.92;1.45;;;24.70;54.10;;;;;;4174008;28;20043;-53
2022/10/16 04:50:59;;;;;;;2.10;1.50;;;24.70;54.00;;;;;;4169364;28;20047;-51
2022/10/16 04:53:23;;;;;;;3.50;1.58;;;24.70;53.90;;;;;;4173927;28;20065;-55
2022/10/16 04:55:45;;;;;;;2.95;2.00;;;24.80;54.00;;;;;;4177444;28;20068;-55
2022/10/16 04:58:08;;;;;;;2.88;1.80;;;24.80;53.90;;;;;;4180874;28;20128;-53
2022/10/16 05:00:31;;;;;;;3.28;2.10;;;24.90;53.90;;;;;;4169006;28;20041;-54
2022/10/16 05:02:53;;;;;;;2.45;2.00;;;25.00;53.80;;;;;;4172475;28;20447;-53
2022/10/16 05:05:16;;;;;;;2.45;1.80;;;25.00;53.70;;;;;;4167393;28;20644;-51
2022/10/16 05:07:38;;;;;;;4.55;2.33;;;25.10;53.70;;;;;;4168076;28;20408;-54
2022/10/16 05:10:01;;;;;;;4.70;2.38;;;25.10;53.50;;;;;;4177269;28;20044;-55
2022/10/16 05:12:24;;;;;;;4.40;2.70;;;25.20;53.40;;;;;;4176502;28;20040;-49
2022/10/16 05:14:46;;;;;;;4.82;2.67;;;25.30;53.30;;;;;;4161976;28;20640;-51
2022/10/16 05:17:09;;;;;;;3.63;2.60;;;25.40;53.30;;;;;;4167858;28;20503;-51
2022/10/16 05:19:31;;;;;;;2.88;2.55;;;25.40;53.10;;;;;;4182033;28;20523;-54
2022/10/16 05:21:54;;;;;;;3.78;2.90;;;25.50;53.10;;;;;;4177440;28;20128;-51
2022/10/16 05:24:16;;;;;;;4.05;2.60;;;25.60;53.00;;;;;;4178580;28;20396;-53
2022/10/16 05:26:39;;;;;;;3.95;2.67;;;25.70;52.90;;;;;;4155461;28;20068;-52
2022/10/16 05:29:02;;;;;;;3.90;2.90;;;25.80;52.80;;;;;;4163565;28;20034;-53
2022/10/16 05:31:24;;;;;;;3.33;2.87;;;25.80;52.70;;;;;;4171573;28;20062;-55
2022/10/16 05:33:47;;;;;;;4.50;3.10;;;25.80;52.70;;;;;;4179951;28;20086;-54
2022/10/16 05:36:10;;;;;;;3.65;2.75;;;25.80;52.60;;;;;;4173863;28;20040;-55
2022/10/16 05:38:33;;;;;;;5.35;2.85;;;25.90;52.50;;;;;;4179997;28;20112;-53
2022/10/16 05:40:56;;;;;;;5.05;3.10;;;26.00;52.60;;;;;;4176678;28;20048;-54
2022/10/16 05:43:19;;;;;;;3.40;3.00;;;26.10;52.50;;;;;;4178996;28;20033;-50
2022/10/16 05:45:42;;;;;;;3.67;2.90;;;26.10;52.40;;;;;;4179780;28;21019;-53
2022/10/16 05:48:04;;;;;;;4.07;2.65;;;26.10;52.40;;;;;;4169028;28;20816;-56
2022/10/16 05:50:27;;;;;;;3.28;2.70;;;26.10;52.40;;;;;;4163183;28;20103;-50
2022/10/16 05:52:50;;;;;;;4.07;3.17;;;26.20;52.40;;;;;;4172216;28;20049;-55
2022/10/16 05:55:12;;;;;;;3.80;3.03;;;26.20;52.40;;;;;;4164062;28;20480;-55
2022/10/16 05:57:35;;;;;;;5.07;2.67;;;26.20;52.40;;;;;;4166194;28;20114;-57
2022/10/16 05:59:58;;;;;;;3.97;3.05;;;26.30;52.40;;;;;;4165225;28;20067;-55
2022/10/16 06:02:20;;;;;;;3.75;2.90;;;26.30;52.40;;;;;;4167769;28;20068;-55
2022/10/16 06:04:43;;;;;;;3.20;2.70;;;26.30;52.40;;;;;;4169994;28;20067;-55
2022/10/16 06:07:07;;;;;;;4.75;2.80;;;26.30;52.30;;;;;;4193434;28;20132;-52
2022/10/16 06:09:29;;;;;;;4.50;2.78;;;26.30;52.50;;;;;;4180565;28;20838;-54
2022/10/16 06:11:52;;;;;;;5.65;2.65;;;26.20;52.40;;;;;;4171914;28;20460;-50
2022/10/16 06:14:14;;;;;;;4.30;2.67;;;26.20;52.70;;;;;;4170448;28;20101;-52
2022/10/16 06:16:38;;;;;;;3.45;2.30;;;26.20;52.50;;;;;;4161039;28;20037;-52
2022/10/16 06:19:01;;;;;;;3.65;2.53;;;26.20;52.60;;;;;;4162128;28;20237;-52
2022/10/16 06:21:25;;;;;;;3.92;2.70;;;26.20;52.60;;;;;;4176342;28;20145;-55
2022/10/16 06:23:48;;;;;;;4.22;2.78;;;26.20;52.60;;;;;;4166364;28;20432;-55
2022/10/16 06:26:13;;;;;;;3.03;2.03;;;26.20;52.60;;;;;;4176233;28;20049;-53
2022/10/16 06:28:35;;;;;;;3.03;2.47;;;26.20;52.70;;;;;;4178111;28;20506;-52
2022/10/16 06:31:03;;;;;;;3.58;2.38;;;26.20;52.80;;;;;;4175607;28;20651;-56
2022/10/16 06:33:25;;;;;;;3.95;2.45;;;26.20;52.80;;;;;;4175741;28;20048;-54
2022/10/16 06:35:47;;;;;;;3.50;2.25;;;26.20;52.80;;;;;;4181454;28;20499;-56
2022/10/16 06:38:10;;;;;;;3.22;2.30;;;26.20;52.80;;;;;;4161245;28;20029;-56
2022/10/16 06:40:33;;;;;;;3.72;2.30;;;26.20;52.80;;;;;;4178511;28;20048;-56
2022/10/16 06:42:58;;;;;;;3.85;2.55;;;26.10;52.70;;;;;;4180718;28;20037;-54
2022/10/16 06:45:20;;;;;;;3.20;2.40;;;26.10;52.70;;;;;;4165467;28;20049;-54
2022/10/16 06:47:43;;;;;;;3.72;2.35;;;26.10;52.70;;;;;;4168643;28;20063;-54
2022/10/16 06:50:07;;;;;;;3.50;2.33;;;26.10;52.70;;;;;;4168386;28;20201;-53
2022/10/16 06:52:29;;;;;;;5.05;2.65;;;26.10;52.80;;;;;;4176086;28;20095;-57
2022/10/16 06:54:52;;;;;;;3.80;2.47;;;26.10;52.80;;;;;;4180175;28;20080;-54
2022/10/16 06:57:14;;;;;;;3.10;2.33;;;26.10;52.80;;;;;;4171561;28;20026;-54
2022/10/16 06:59:37;;;;;;;3.95;2.30;;;26.10;52.90;;;;;;4180132;28;20408;-55
2022/10/16 07:01:59;;;;;;;3.72;2.63;;;26.00;52.80;;;;;;4179059;28;20509;-54
2022/10/16 07:04:22;;;;;;;4.78;2.53;;;26.00;52.80;;;;;;4167051;28;20128;-55
2022/10/16 07:06:45;;;;;;;3.90;2.28;;;26.00;52.90;;;;;;4170632;28;20124;-50
2022/10/16 07:09:11;;;;;;;3.35;2.33;;;25.90;52.90;;;;;;4174463;28;20028;-54
2022/10/16 07:11:34;;;;;;;3.70;2.40;;;25.90;53.10;;;;;;4169237;28;20041;-52
2022/10/16 07:13:57;;;;;;;3.97;2.10;;;25.80;53.10;;;;;;4172206;28;20112;-52
2022/10/16 07:16:21;;;;;;;3.42;2.00;;;25.80;53.10;;;;;;4172466;28;20563;-53
2022/10/16 07:18:46;;;;;;;3.00;1.95;;;25.80;53.30;;;;;;4172512;28;20072;-53
2022/10/16 07:21:11;;;;;;;2.88;2.00;;;25.70;53.20;;;;;;4175471;28;20042;-54
2022/10/16 07:23:34;;;;;;;3.08;2.33;;;25.70;53.30;;;;;;4171958;28;20045;-51
2022/10/16 07:25:57;;;;;;;2.75;1.92;;;25.60;53.30;;;;;;4173925;28;20049;-53
2022/10/16 07:28:19;;;;;;;3.00;2.05;;;25.60;53.30;;;;;;4174145;28;20033;-54
2022/10/16 07:30:42;;;;;;;3.33;2.00;;;25.60;53.40;;;;;;4178401;28;20577;-49
2022/10/16 07:33:04;;;;;;;2.88;2.00;;;25.50;53.40;;;;;;4174573;28;20763;-48
2022/10/16 07:35:27;;;;;;;3.92;2.05;;;25.50;53.40;;;;;;4174489;28;20055;-50
2022/10/16 07:37:49;;;;;;;4.18;2.00;;;25.50;53.40;;;;;;4174248;28;20059;-52
2022/10/16 07:40:12;;;;;;;3.83;2.05;;;25.40;53.20;;;;;;4172942;28;20055;-51
2022/10/16 07:42:35;;;;;;;2.25;1.70;;;25.40;53.20;;;;;;4172981;28;20358;-53
2022/10/16 07:44:57;;;;;;;3.88;1.70;;;25.40;53.30;;;;;;4163474;28;20545;-54
2022/10/16 07:47:20;;;;;;;3.47;1.83;;;25.40;53.20;;;;;;4162073;28;20397;-51
2022/10/16 07:49:43;;;;;;;3.78;1.98;;;25.40;53.30;;;;;;4164875;28;20523;-54
2022/10/16 07:52:05;;;;;;;3.42;1.70;;;25.30;53.20;;;;;;4163867;28;20040;-52
2022/10/16 07:54:28;;;;;;;5.03;1.98;;;25.30;53.30;;;;;;4166187;28;20073;-54
2022/10/16 07:56:50;;;;;;;2.95;1.67;;;25.20;53.40;;;;;;4164201;28;20723;-55
2022/10/16 07:59:13;;;;;;;1.83;1.33;;;25.20;53.40;;;;;;4158744;28;20068;-55
2022/10/16 08:01:35;;;;;;;3.50;1.70;;;25.10;53.30;;;;;;4156164;28;20034;-50
2022/10/16 08:03:58;;;;;;;3.60;1.90;;;25.10;53.30;;;;;;4167286;28;20052;-54
2022/10/16 08:06:22;;;;;;;5.47;2.15;;;25.10;53.40;;;;;;4163643;28;20045;-53
2022/10/16 08:08:45;;;;;;;3.05;1.88;;;25.10;53.50;;;;;;4165154;28;20045;-55
2022/10/16 08:11:08;;;;;;;3.50;1.95;;;25.00;53.40;;;;;;4160885;28;20033;-54
2022/10/16 08:13:31;;;;;;;3.83;1.60;;;25.00;53.40;;;;;;4166146;28;20041;-51
2022/10/16 08:15:55;;;;;;;3.28;1.58;;;25.00;54.00;;;;;;4171101;28;20168;-55
2022/10/16 08:18:17;;;;;;;2.90;1.50;;;24.90;53.50;;;;;;4165359;28;20052;-54
2022/10/16 08:20:41;;;;;;;3.53;1.60;;;24.90;53.50;;;;;;4163044;28;20077;-51
2022/10/16 08:23:04;;;;;;;3.72;1.60;;;24.90;53.50;;;;;;4161508;28;20139;-55
2022/10/16 08:25:26;;;;;;;2.93;1.33;;;24.90;53.70;;;;;;4161685;28;20232;-53
2022/10/16 08:27:49;;;;;;;2.63;1.35;;;24.90;53.70;;;;;;4173880;28;20041;-54
2022/10/16 08:30:12;;;;;;;3.17;1.55;;;24.80;53.70;;;;;;4165855;28;20487;-55
2022/10/16 08:32:35;;;;;;;2.90;1.65;;;24.80;53.70;;;;;;4170794;28;20033;-54
2022/10/16 08:34:57;;;;;;;3.38;1.83;;;24.80;53.60;;;;;;4172361;28;20075;-54
2022/10/16 08:37:20;;;;;;;4.28;1.85;;;24.80;53.80;;;;;;4167968;28;20140;-56
2022/10/16 08:39:42;;;;;;;5.20;1.60;;;24.70;53.80;;;;;;4169473;28;20116;-53
2022/10/16 08:42:12;;;;;;;2.50;1.50;;;24.70;53.80;;;;;;4165208;28;20033;-55
2022/10/16 08:44:37;;;;;;;2.75;1.73;;;24.70;53.70;;;;;;4164402;28;20537;-53
2022/10/16 08:47:35;;;;;;;4.25;1.55;;;24.70;53.80;;;;;;4168279;28;20049;-54
2022/10/16 08:50:08;;;;;;;4.45;1.10;;;24.60;53.90;;;;;;4154187;28;20160;-53
2022/10/16 08:52:35;;;;;;;2.05;1.30;;;24.60;53.80;;;;;;4164399;28;20047;-50
2022/10/16 08:54:58;;;;;;;3.08;1.60;;;24.60;53.90;;;;;;4172354;28;20127;-52
2022/10/16 08:57:22;;;;;;;2.72;1.60;;;24.60;54.00;;;;;;4167516;28;20106;-55
2022/10/16 08:59:45;;;;;;;2.53;1.30;;;24.60;54.00;;;;;;4163195;28;20049;-55
2022/10/16 09:02:41;;;;;;;3.63;1.52;;;24.50;54.10;;;;;;4163711;28;20143;-56
2022/10/16 09:05:22;;;;;;;2.60;1.27;;;24.50;54.20;;;;;;4169589;28;20037;-54
2022/10/16 09:08:08;;;;;;;2.72;1.42;;;24.50;54.10;;;;;;4172734;28;20040;-51
2022/10/16 09:10:54;;;;;;;3.10;1.55;;;24.40;54.20;;;;;;4166492;28;20496;-54
2022/10/16 09:13:29;;;;;;;3.00;1.25;;;24.40;54.20;;;;;;4173884;28;20036;-53
2022/10/16 09:16:02;;;;;;;2.88;1.30;;;24.40;54.20;;;;;;4164250;28;20034;-55
2022/10/16 09:18:48;;;;;;;3.08;1.10;;;24.40;54.30;;;;;;4173963;28;20037;-49
2022/10/16 09:21:37;;;;;;;1.80;1.10;;;24.40;54.40;;;;;;4173908;28;20086;-50
2022/10/16 09:24:21;;;;;;;2.83;1.20;;;24.40;54.40;;;;;;4171062;28;20043;-53
2022/10/16 09:26:44;;;;;;;2.65;1.30;;;24.30;54.40;;;;;;4175605;28;20399;-54
2022/10/16 09:29:09;;;;;;;2.72;1.25;;;24.30;54.50;;;;;;4175994;28;20518;-55
2022/10/16 09:31:32;;;;;;;1.92;1.00;;;24.30;54.50;;;;;;4168080;28;20036;-53
2022/10/16 09:34:04;;;;;;;1.50;0.83;;;24.30;54.50;;;;;;4171736;28;20426;-55
2022/10/16 09:36:28;;;;;;;1.73;1.00;;;24.20;54.70;;;;;;4175649;28;20454;-56
2022/10/16 09:39:01;;;;;;;2.95;1.38;;;24.20;54.60;;;;;;4175577;28;20055;-51
2022/10/16 09:41:25;;;;;;;3.05;1.50;;;24.20;54.70;;;;;;4165436;28;20465;-55
2022/10/16 09:43:47;;;;;;;2.40;1.25;;;24.20;54.80;;;;;;4172278;28;20049;-55
2022/10/16 09:46:25;;;;;;;2.35;1.02;;;24.20;54.90;;;;;;4167466;28;20080;-54
2022/10/16 09:48:53;;;;;;;2.30;1.40;;;24.10;54.80;;;;;;4177269;28;20037;-53
2022/10/16 09:51:36;;;;;;;2.03;0.88;;;24.10;54.90;;;;;;4170754;28;20036;-52
2022/10/16 09:54:21;;;;;;;3.67;1.20;;;24.10;54.90;;;;;;4176701;28;20551;-54
2022/10/16 09:56:51;;;;;;;1.63;1.00;;;24.10;55.20;;;;;;4172803;28;20128;-54
2022/10/16 09:59:15;;;;;;;2.08;0.77;;;24.00;55.20;;;;;;4169261;28;20464;-54
2022/10/16 10:01:41;;;;;;;1.77;0.90;;;24.00;55.30;;;;;;4167657;28;20132;-51
2022/10/16 10:04:05;;;;;;;1.58;0.90;;;24.00;55.40;;;;;;4168527;28;20060;-53
2022/10/16 10:06:31;;;;;;;2.78;1.17;;;24.00;55.20;;;;;;4181064;28;20055;-53
2022/10/16 10:08:56;;;;;;;1.60;0.88;;;24.00;55.20;;;;;;4168788;28;20028;-52
2022/10/16 10:11:18;;;;;;;1.85;1.13;;;24.00;55.30;;;;;;4170371;28;20036;-52
2022/10/16 10:13:41;;;;;;;2.53;1.25;;;24.00;55.50;;;;;;4182184;28;20067;-54
2022/10/16 10:16:03;;;;;;;2.35;1.20;;;24.00;55.50;;;;;;4182146;28;20051;-55
2022/10/16 10:18:26;;;;;;;2.97;1.30;;;24.00;55.70;;;;;;4166508;28;20137;-54
2022/10/16 10:20:59;;;;;;;1.52;1.20;;;23.90;55.70;;;;;;4173287;28;20032;-55
2022/10/16 10:23:28;;;;;;;1.48;0.80;;;23.90;55.80;;;;;;4160442;28;20172;-55
2022/10/16 10:26:07;;;;;;;2.28;1.20;;;23.90;55.90;;;;;;4171555;28;20051;-52
2022/10/16 10:28:56;;;;;;;3.40;1.55;;;23.90;55.90;;;;;;4176323;28;20144;-52
2022/10/16 10:31:54;;;;;;;2.92;1.13;;;23.80;55.60;;;;;;4177088;28;20063;-54
2022/10/16 10:34:29;;;;;;;2.65;1.08;;;23.80;55.70;;;;;;4175051;28;20526;-55
2022/10/16 10:37:15;;;;;;;3.20;1.17;;;23.80;55.90;;;;;;4177398;28;20158;-55
2022/10/16 10:39:46;;;;;;;2.35;1.35;;;23.80;56.00;;;;;;4176472;28;20403;-55
2022/10/16 10:42:50;;;;;;;2.25;1.15;;;23.80;56.10;;;;;;4167320;28;20044;-55
2022/10/16 10:45:36;;;;;;;3.53;1.50;;;23.80;56.00;;;;;;4173766;28;20044;-55
2022/10/16 10:48:13;;;;;;;3.30;1.35;;;23.80;56.10;;;;;;4177699;28;20523;-54
2022/10/16 10:51:13;;;;;;;3.45;1.75;;;23.70;56.00;;;;;;4182159;28;20492;-55
2022/10/16 10:53:48;;;;;;;2.05;1.10;;;23.70;56.30;;;;;;4174193;28;20041;-53
2022/10/16 10:56:48;;;;;;;2.60;1.30;;;23.70;56.40;;;;;;4176249;28;20048;-53
2022/10/16 10:59:37;;;;;;;1.42;0.95;;;23.70;56.50;;;;;;4171664;28;20033;-54
2022/10/16 11:02:12;;;;;;;2.63;1.33;;;23.70;56.50;;;;;;4177814;28;20087;-53
2022/10/16 11:04:59;;;;;;;3.80;1.33;;;23.60;56.60;;;;;;4181519;28;20369;-53
2022/10/16 11:07:32;;;;;;;2.10;1.17;;;23.60;56.50;;;;;;4169284;28;20435;-54
2022/10/16 11:10:05;;;;;;;2.83;1.10;;;23.60;56.70;;;;;;4172070;28;20037;-53
2022/10/16 11:12:35;;;;;;;2.60;1.40;;;23.60;56.70;;;;;;4169126;28;20788;-53
2022/10/16 11:15:30;;;;;;;4.30;1.40;;;23.60;56.80;;;;;;4173533;28;20416;-55
2022/10/16 11:18:12;;;;;;;4.35;1.25;;;23.60;57.00;;;;;;4167426;28;20040;-55
2022/10/16 11:20:52;;;;;;;2.38;1.08;;;23.50;57.00;;;;;;4167720;28;20121;-54
2022/10/16 11:23:18;;;;;;;3.65;1.50;;;23.60;57.10;;;;;;4170991;28;20048;-56
2022/10/16 11:25:43;;;;;;;4.93;1.40;;;23.50;56.90;;;;;;4166473;28;20103;-51
2022/10/16 11:28:12;;;;;;;3.30;1.15;;;23.50;57.10;;;;;;4170531;28;20416;-48
2022/10/16 11:30:47;;;;;;;3.70;1.20;;;23.50;57.20;;;;;;4173773;28;20076;-52
2022/10/16 11:33:19;;;;;;;2.95;1.42;;;23.50;57.30;;;;;;4171110;28;20241;-53
2022/10/16 11:36:05;;;;;;;2.97;1.30;;;23.40;57.30;;;;;;4176890;28;20518;-52
2022/10/16 11:38:32;;;;;;;3.78;1.58;;;23.40;57.30;;;;;;4175796;28;20037;-53
2022/10/16 11:41:00;;;;;;;3.25;1.30;;;23.40;57.20;;;;;;4166694;28;20056;-49
2022/10/16 11:43:37;;;;;;;4.55;1.35;;;23.40;57.30;;;;;;4174674;28;20060;-52
2022/10/16 11:46:08;;;;;;;2.53;1.10;;;23.40;57.40;;;;;;4171108;28;20525;-54
2022/10/16 11:48:36;;;;;;;3.80;1.45;;;23.40;57.50;;;;;;4177483;28;20044;-53
2022/10/16 11:51:20;;;;;;;3.78;1.77;;;23.40;57.60;;;;;;4169151;28;20045;-51
2022/10/16 11:54:29;;;;;;;3.55;1.40;;;23.30;57.40;;;;;;4172704;28;20044;-50
2022/10/16 11:56:58;;;;;;;3.80;1.27;;;23.30;57.60;;;;;;4175559;28;20056;-53
2022/10/16 11:59:34;;;;;;;2.40;1.33;;;23.30;57.70;;;;;;4170410;28;20086;-52
2022/10/16 12:02:27;;;;;;;3.17;1.40;;;23.30;57.60;;;;;;4170568;28;20086;-48
2022/10/16 12:05:01;;;;;;;4.57;1.45;;;23.30;57.70;;;;;;4166346;28;20049;-51
2022/10/16 12:07:32;;;;;;;3.37;1.60;;;23.30;57.70;;;;;;4170694;28;20049;-51
2022/10/16 12:10:00;;;;;;;4.35;1.60;;;23.30;57.80;;;;;;4163497;28;20033;-47
2022/10/16 12:12:39;;;;;;;15.77;1.92;;;23.20;57.90;;;;;;4168447;28;20047;-45
2022/10/16 12:15:19;;;;;;;7.63;1.65;;;23.30;57.90;;;;;;4172734;28;20111;-48
2022/10/16 12:17:41;;;;;;;6.57;1.55;;;23.30;58.20;;;;;;4169491;28;20040;-52
2022/10/16 12:20:13;;;;;;;3.72;1.77;;;23.30;58.50;;;;;;4174993;28;20040;-51
2022/10/16 12:22:36;;;;;;;5.35;1.55;;;23.30;58.60;;;;;;4172838;28;20069;-51
2022/10/16 12:24:59;;;;;;;6.70;1.60;;;23.20;58.70;;;;;;4174524;28;20040;-55
2022/10/16 12:27:31;;;;;;;4.43;1.38;;;23.20;58.80;;;;;;4172434;28;20087;-54
2022/10/16 12:30:03;;;;;;;5.95;1.95;;;23.30;59.10;;;;;;4173406;28;20090;-54
2022/10/16 12:32:39;;;;;;;7.00;1.63;;;23.30;59.30;;;;;;4163149;28;20079;-47
2022/10/16 12:35:05;;;;;;;4.13;1.52;;;23.30;59.30;;;;;;4174347;28;20578;-53
2022/10/16 12:37:33;;;;;;;2.90;1.23;;;23.30;59.30;;;;;;4171631;28;20481;-49
2022/10/16 12:39:58;;;;;;;3.90;1.60;;;23.30;59.30;;;;;;4170613;28;20823;-51
2022/10/16 12:42:33;;;;;;;5.70;1.60;;;23.30;59.30;;;;;;4173699;28;20036;-48
2022/10/16 12:44:56;;;;;;;2.65;1.38;;;23.30;59.00;;;;;;4177258;28;20860;-46
2022/10/16 12:47:38;;;;;;;6.80;1.42;;;23.20;58.80;;;;;;4175945;28;20044;-49
2022/10/16 12:50:00;;;;;;;5.40;1.45;;;23.20;58.60;;;;;;4164254;28;20033;-50